地図

経路データ

SID SEASON NUMBER BASIN SUBBASIN NAME ISO_TIME NATURE LAT LON WMO_WIND WMO_PRES WMO_AGENCY TRACK_TYPE DIST2LAND LANDFALL IFLAG USA_AGENCY USA_ATCF_ID USA_LAT USA_LON USA_RECORD USA_STATUS USA_WIND USA_PRES USA_SSHS USA_R34_NE USA_R34_SE USA_R34_SW USA_R34_NW USA_R50_NE USA_R50_SE USA_R50_SW USA_R50_NW USA_R64_NE USA_R64_SE USA_R64_SW USA_R64_NW USA_POCI USA_ROCI USA_RMW USA_EYE TOKYO_LAT TOKYO_LON TOKYO_GRADE TOKYO_WIND TOKYO_PRES TOKYO_R50_DIR TOKYO_R50_LONG TOKYO_R50_SHORT TOKYO_R30_DIR TOKYO_R30_LONG TOKYO_R30_SHORT TOKYO_LAND CMA_LAT CMA_LON CMA_CAT CMA_WIND CMA_PRES HKO_LAT HKO_LON HKO_CAT HKO_WIND HKO_PRES NEWDELHI_LAT NEWDELHI_LON NEWDELHI_GRADE NEWDELHI_WIND NEWDELHI_PRES NEWDELHI_CI NEWDELHI_DP NEWDELHI_POCI REUNION_LAT REUNION_LON REUNION_TYPE REUNION_WIND REUNION_PRES REUNION_TNUM REUNION_CI REUNION_RMW REUNION_R34_NE REUNION_R34_SE REUNION_R34_SW REUNION_R34_NW REUNION_R50_NE REUNION_R50_SE REUNION_R50_SW REUNION_R50_NW REUNION_R64_NE REUNION_R64_SE REUNION_R64_SW REUNION_R64_NW BOM_LAT BOM_LON BOM_TYPE BOM_WIND BOM_PRES BOM_TNUM BOM_CI BOM_RMW BOM_R34_NE BOM_R34_SE BOM_R34_SW BOM_R34_NW BOM_R50_NE BOM_R50_SE BOM_R50_SW BOM_R50_NW BOM_R64_NE BOM_R64_SE BOM_R64_SW BOM_R64_NW BOM_ROCI BOM_POCI BOM_EYE BOM_POS_METHOD BOM_PRES_METHOD NADI_LAT NADI_LON NADI_CAT NADI_WIND NADI_PRES WELLINGTON_LAT WELLINGTON_LON WELLINGTON_WIND WELLINGTON_PRES DS824_LAT DS824_LON DS824_STAGE DS824_WIND DS824_PRES TD9636_LAT TD9636_LON TD9636_STAGE TD9636_WIND TD9636_PRES TD9635_LAT TD9635_LON TD9635_WIND TD9635_PRES TD9635_ROCI NEUMANN_LAT NEUMANN_LON NEUMANN_CLASS NEUMANN_WIND NEUMANN_PRES MLC_LAT MLC_LON MLC_CLASS MLC_WIND MLC_PRES USA_GUST BOM_GUST BOM_GUST_PER REUNION_GUST REUNION_GUST_PER USA_SEAHGT USA_SEARAD_NE USA_SEARAD_SE USA_SEARAD_SW USA_SEARAD_NW STORM_SPEED STORM_DIR
1883314N11095 1883 32 NI BB NOT_NAMED 1883-11-10 00:00:00 TS 11.2000 95.4000 main 345 345 _________O____ -1 11.2000 95.4000 TC 34 4 315
1883314N11095 1883 32 NI BB NOT_NAMED 1883-11-10 03:00:00 TS 11.3334 95.2600 main 355 355 _________PO___ -1 11.4000 95.1901 TC 36 11.2000 95.4000 2 4 316
1883314N11095 1883 32 NI BB NOT_NAMED 1883-11-10 06:00:00 TS 11.5213 95.0845 main 373 371 _________OP___ -1 11.6000 95.0000 TC 39 11.4032 95.2112 2 5 319
1883314N11095 1883 32 NI BB NOT_NAMED 1883-11-10 09:00:00 TS 11.7165 94.9219 main 392 392 _________PP___ -1 11.8000 94.8425 TC 42 11.6051 95.0278 2 5 322
1883314N11095 1883 32 NI BB NOT_NAMED 1883-11-10 12:00:00 TS 11.9022 94.7778 main 402 402 _________OP___ -1 12.0000 94.7000 TC 45 11.8045 94.8555 2 5 323
1883314N11095 1883 32 NI BB NOT_NAMED 1883-11-10 15:00:00 TS 12.1000 94.6212 main 405 384 _________PO___ -1 12.2000 94.5425 TC 45 12.0000 94.7000 3 5 324
1883314N11095 1883 32 NI BB NOT_NAMED 1883-11-10 18:00:00 TS 12.2959 94.4823 main 384 364 _________OP___ -1 12.4000 94.4000 TC 45 12.1918 94.5645 3 5 328
1883314N11095 1883 32 NI BB NOT_NAMED 1883-11-10 21:00:00 TS 12.4887 94.3711 main 364 344 _________PP___ -1 12.5925 94.2999 TC 45 12.3849 94.4423 3 5 331
1883314N11095 1883 32 NI BB NOT_NAMED 1883-11-11 00:00:00 TS 12.6928 94.2619 main 344 325 _________OP___ -1 12.8000 94.2000 TC 45 12.5856 94.3239 3 5 331
1883314N11095 1883 32 NI BB NOT_NAMED 1883-11-11 03:00:00 TS 12.9213 94.1288 main 326 294 _________PO___ -1 13.0425 94.0575 TC 45 12.8000 94.2000 3 6 330
1883314N11095 1883 32 NI BB NOT_NAMED 1883-11-11 06:00:00 TS 13.1678 93.9746 main 294 274 _________OP___ -1 13.3000 93.9000 TC 45 13.0356 94.0491 3 6 329
1883314N11095 1883 32 NI BB NOT_NAMED 1883-11-11 09:00:00 TS 13.4175 93.8175 main 276 246 _________PP___ -1 13.5500 93.7425 TC 45 13.2850 93.8926 3 6 329
1883314N11095 1883 32 NI BB NOT_NAMED 1883-11-11 12:00:00 TS 13.6710 93.6699 main 246 229 _________OP___ -1 13.8000 93.6000 TC 45 13.5419 93.7397 3 6 333
1883314N11095 1883 32 NI BB NOT_NAMED 1883-11-11 15:00:00 TS 13.9250 93.5462 main 233 203 _________PO___ -1 14.0500 93.4925 TC 45 13.8000 93.6000 3 6 337
1883314N11095 1883 32 NI BB NOT_NAMED 1883-11-11 18:00:00 TS 14.1790 93.4428 main 208 189 _________OP___ -1 14.3000 93.4000 TC 45 14.0581 93.4855 3 6 339
1883314N11095 1883 32 NI BB NOT_NAMED 1883-11-11 21:00:00 TS 14.4362 93.3424 main 196 170 _________PP___ -1 14.5575 93.3000 TC 45 14.3149 93.3849 3 5 339
1883314N11095 1883 32 NI BB NOT_NAMED 1883-11-12 00:00:00 TS 14.6822 93.2459 main 178 163 _________OP___ -1 14.8000 93.2000 TC 45 14.5643 93.2918 3 5 338
1883314N11095 1883 32 NI BB NOT_NAMED 1883-11-12 03:00:00 TS 14.9037 93.1500 main 163 155 _________PO___ -1 15.0075 93.1000 TC 45 14.8000 93.2000 3 5 336
1883314N11095 1883 32 NI BB NOT_NAMED 1883-11-12 06:00:00 TS 15.1072 93.0459 main 163 150 _________OP___ -1 15.2000 93.0000 TC 45 15.0144 93.0919 3 5 333
1883314N11095 1883 32 NI BB NOT_NAMED 1883-11-12 09:00:00 TS 15.3075 92.9387 main 159 150 _________PP___ -1 15.4000 92.8925 TC 45 15.2150 92.9850 3 4 333
1883314N11095 1883 32 NI BB NOT_NAMED 1883-11-12 12:00:00 TS 15.5041 92.8428 main 159 153 _________OP___ -1 15.6000 92.8000 TC 45 15.4081 92.8856 3 4 338
1883314N11095 1883 32 NI BB NOT_NAMED 1883-11-12 15:00:00 TS 15.7000 92.7712 main 153 151 _________PO___ -1 15.8000 92.7425 TC 45 15.6000 92.8000 3 4 342
1883314N11095 1883 32 NI BB NOT_NAMED 1883-11-12 18:00:00 TS 15.8756 92.7097 main 160 160 _________OP___ -1 16.0000 92.7000 TC 45 15.7513 92.7194 3 4 340
1883314N11095 1883 32 NI BB NOT_NAMED 1883-11-12 21:00:00 TS 16.0325 92.6488 main 171 171 _________PP___ -1 16.1550 92.6425 TC 45 15.9100 92.6551 3 4 346
1883314N11095 1883 32 NI BB NOT_NAMED 1883-11-13 00:00:00 TS 16.2569 92.6066 main 174 174 _________OP___ -1 16.4000 92.6000 TC 45 16.1138 92.6133 3 6 355
1883314N11095 1883 32 NI BB NOT_NAMED 1883-11-13 03:00:00 TS 16.6275 92.5888 main 181 181 _________PO___ -1 16.8550 92.5776 TC 45 16.4000 92.6000 3 9 359
1883314N11095 1883 32 NI BB NOT_NAMED 1883-11-13 06:00:00 TS 17.1109 92.5986 main 192 192 _________OP___ -1 17.4000 92.6000 TC 45 16.8218 92.5971 3 10 3
1883314N11095 1883 32 NI BB NOT_NAMED 1883-11-13 09:00:00 TS 17.6162 92.6515 main 182 145 _________PP___ -1 17.9075 92.6775 TC 45 17.3249 92.6255 3 10 8
1883314N11095 1883 32 NI BB NOT_NAMED 1883-11-13 12:00:00 TS 18.1328 92.7455 main 145 95 _________OP___ -1 18.4000 92.8000 TC 45 17.8656 92.6910 3 10 11
1883314N11095 1883 32 NI BB NOT_NAMED 1883-11-13 15:00:00 TS 18.6287 92.8638 main 95 71 _________PO___ -1 18.8575 92.9277 TC 41 18.4000 92.8000 3 10 15
1883314N11095 1883 32 NI BB NOT_NAMED 1883-11-13 18:00:00 TS 19.0679 93.0175 main 66 43 _________OP___ -1 19.3000 93.1000 TC 37 18.8939 92.9556 3 9 21
1883314N11095 1883 32 NI BB NOT_NAMED 1883-11-13 21:00:00 TS 19.5092 93.2221 main 47 10 _________PP___ -1 19.7476 93.3321 TC 33 19.3502 93.1488 3 9 25
1883314N11095 1883 32 NI BB NOT_NAMED 1883-11-14 00:00:00 TS 19.9210 93.4451 main 10 0 _________OP___ -1 20.2000 93.6000 TC 30 19.7815 93.3677 3 8 27
1883314N11095 1883 32 NI BB NOT_NAMED 1883-11-14 03:00:00 NR 20.2000 93.6000 main 0 __________O___ -1 TC 20.2000 93.6000 1 6 27

IBTrACS Databaseについて

本データベースは、米国NOAAが公開する1842年以降の世界の熱帯低気圧のベストトラックデータアーカイブInternational Best Track Archive for Climate Stewardship (IBTrACS)を、ウェブで閲覧しやすい形式に変換したものです。

最終更新日:2021-10-08